Terminal Aerodrome Forecast
Issued by NWS

Home | Current Version | Previous Version | Text Only | Print | Product List | Glossary Off
Versions: 1 2 3 4 5 6 7 8 9 10 11 12 13 14 15 16 17 18 19 20 21 22 23 24

382
FTUS42 KMHX 280846 AAA
TAFISO
TAF AMD
KISO 280846Z 2809/2906 18004KT P6SM VCSH SCT150 BKN250
      TEMPO 2808/2811 4SM SHRA BKN050
     FM281700 22006KT P6SM VCTS SCT050CB BKN110
     FM281900 18007KT 6SM SHRA VCTS BKN050CB
     FM290300 VRB03KT 6SM BR VCSH BKN035
      AMD LTD TO CLD VIS AND WIND=

USA.gov is the U.S. government's official web portal to all federal, state and local government web resources and services.